sensor_id;sensor_type;location;lat;lon;timestamp;pressure;altitude;pressure_sealevel;temperature;humidity
39729;BME280;25402;42.004;23.088;2023-05-10T00:01:56;97620.56;;;9.55;52.60
39729;BME280;25402;42.004;23.088;2023-05-10T00:04:26;97571.97;;;9.24;52.65
39729;BME280;25402;42.004;23.088;2023-05-10T00:06:54;97562.00;;;9.24;52.62
39729;BME280;25402;42.004;23.088;2023-05-10T00:09:20;97631.84;;;9.58;52.71
39729;BME280;25402;42.004;23.088;2023-05-10T00:11:49;97565.53;;;9.25;52.78
39729;BME280;25402;42.004;23.088;2023-05-10T00:14:16;97574.91;;;9.37;52.67
39729;BME280;25402;42.004;23.088;2023-05-10T00:16:43;97570.19;;;9.39;52.84
39729;BME280;25402;42.004;23.088;2023-05-10T00:19:10;97581.06;;;9.54;52.80
39729;BME280;25402;42.004;23.088;2023-05-10T00:21:37;97618.41;;;9.73;53.02
39729;BME280;25402;42.004;23.088;2023-05-10T00:24:05;97570.84;;;9.41;53.00
39729;BME280;25402;42.004;23.088;2023-05-10T00:26:32;97609.47;;;9.72;52.60
39729;BME280;25402;42.004;23.088;2023-05-10T00:29:00;97614.53;;;9.76;52.54
39729;BME280;25402;42.004;23.088;2023-05-10T00:31:27;97558.78;;;9.52;52.38
39729;BME280;25402;42.004;23.088;2023-05-10T00:33:54;97559.31;;;9.47;52.03
39729;BME280;25402;42.004;23.088;2023-05-10T00:36:21;97551.03;;;9.49;51.77
39729;BME280;25402;42.004;23.088;2023-05-10T00:38:48;97542.16;;;9.40;51.96
39729;BME280;25402;42.004;23.088;2023-05-10T00:41:15;97591.75;;;9.70;52.21
39729;BME280;25402;42.004;23.088;2023-05-10T00:43:42;97544.50;;;9.43;52.51
39729;BME280;25402;42.004;23.088;2023-05-10T00:46:10;97561.00;;;9.48;52.56
39729;BME280;25402;42.004;23.088;2023-05-10T00:48:38;97557.00;;;9.44;52.85
39729;BME280;25402;42.004;23.088;2023-05-10T00:51:05;97608.47;;;9.73;52.10
39729;BME280;25402;42.004;23.088;2023-05-10T00:53:34;97562.94;;;9.40;51.74
39729;BME280;25402;42.004;23.088;2023-05-10T00:56:01;97556.19;;;9.35;51.83
39729;BME280;25402;42.004;23.088;2023-05-10T00:58:29;97560.41;;;9.38;52.00
39729;BME280;25402;42.004;23.088;2023-05-10T01:00:56;97558.38;;;9.40;52.27
39729;BME280;25402;42.004;23.088;2023-05-10T01:03:25;97561.34;;;9.45;52.00
39729;BME280;25402;42.004;23.088;2023-05-10T01:05:52;97614.69;;;9.74;52.51
39729;BME280;25402;42.004;23.088;2023-05-10T01:08:20;97562.69;;;9.49;52.65
39729;BME280;25402;42.004;23.088;2023-05-10T01:10:47;97559.50;;;9.46;53.34
39729;BME280;25402;42.004;23.088;2023-05-10T01:13:18;97608.47;;;9.73;53.36
39729;BME280;25402;42.004;23.088;2023-05-10T01:15:50;97567.41;;;9.47;53.76
39729;BME280;25402;42.004;23.088;2023-05-10T01:18:20;97609.75;;;9.78;53.45
39729;BME280;25402;42.004;23.088;2023-05-10T01:20:59;97608.72;;;9.79;53.71
39729;BME280;25402;42.004;23.088;2023-05-10T01:23:41;97557.81;;;9.45;53.83
39729;BME280;25402;42.004;23.088;2023-05-10T01:26:33;97554.75;;;9.48;53.73
39729;BME280;25402;42.004;23.088;2023-05-10T01:29:20;97558.97;;;9.50;53.32
39729;BME280;25402;42.004;23.088;2023-05-10T01:32:14;97551.53;;;9.52;53.56
39729;BME280;25402;42.004;23.088;2023-05-10T01:34:47;97559.31;;;9.47;53.82
39729;BME280;25402;42.004;23.088;2023-05-10T01:37:29;97547.56;;;9.40;54.07
39729;BME280;25402;42.004;23.088;2023-05-10T01:40:01;97597.94;;;9.79;53.61
39729;BME280;25402;42.004;23.088;2023-05-10T01:42:36;97519.94;;;9.30;53.76
39729;BME280;25402;42.004;23.088;2023-05-10T01:45:14;97540.34;;;9.32;53.63
39729;BME280;25402;42.004;23.088;2023-05-10T01:47:50;97602.38;;;9.71;53.31
39729;BME280;25402;42.004;23.088;2023-05-10T01:50:24;97533.56;;;9.36;53.15
39729;BME280;25402;42.004;23.088;2023-05-10T01:52:57;97595.09;;;9.49;52.44
39729;BME280;25402;42.004;23.088;2023-05-10T01:55:27;97559.66;;;9.21;51.97
39729;BME280;25402;42.004;23.088;2023-05-10T01:58:02;97541.97;;;9.11;52.21
39729;BME280;25402;42.004;23.088;2023-05-10T02:00:31;97593.63;;;9.38;52.00
39729;BME280;25402;42.004;23.088;2023-05-10T02:03:03;97595.00;;;9.34;52.15
39729;BME280;25402;42.004;23.088;2023-05-10T02:05:33;97540.88;;;8.97;52.23
39729;BME280;25402;42.004;23.088;2023-05-10T02:08:03;97547.06;;;8.97;52.54
39729;BME280;25402;42.004;23.088;2023-05-10T02:10:32;97556.50;;;9.01;52.62
39729;BME280;25402;42.004;23.088;2023-05-10T02:13:00;97546.81;;;8.84;52.86
39729;BME280;25402;42.004;23.088;2023-05-10T02:15:29;97598.47;;;9.12;53.11
39729;BME280;25402;42.004;23.088;2023-05-10T02:17:57;97539.88;;;8.82;53.14
39729;BME280;25402;42.004;23.088;2023-05-10T02:20:27;97510.84;;;8.61;53.25
39729;BME280;25402;42.004;23.088;2023-05-10T02:22:57;97607.75;;;9.18;53.07
39729;BME280;25402;42.004;23.088;2023-05-10T02:25:25;97533.34;;;8.76;52.69
39729;BME280;25402;42.004;23.088;2023-05-10T02:27:55;97593.91;;;9.13;52.51
39729;BME280;25402;42.004;23.088;2023-05-10T02:30:23;97596.34;;;8.91;52.48
39729;BME280;25402;42.004;23.088;2023-05-10T02:32:51;97537.47;;;8.64;52.32
39729;BME280;25402;42.004;23.088;2023-05-10T02:35:18;97539.16;;;8.57;52.46
39729;BME280;25402;42.004;23.088;2023-05-10T02:37:47;97537.47;;;8.64;52.68
39729;BME280;25402;42.004;23.088;2023-05-10T02:40:15;97586.91;;;8.95;52.62
39729;BME280;25402;42.004;23.088;2023-05-10T02:42:44;97533.19;;;8.69;52.46
39729;BME280;25402;42.004;23.088;2023-05-10T02:45:21;97530.69;;;8.68;52.57
39729;BME280;25402;42.004;23.088;2023-05-10T02:47:48;97584.81;;;9.06;52.61
39729;BME280;25402;42.004;23.088;2023-05-10T02:50:16;97526.78;;;8.71;52.47
39729;BME280;25402;42.004;23.088;2023-05-10T02:52:49;97536.06;;;8.76;52.89
39729;BME280;25402;42.004;23.088;2023-05-10T02:55:25;97521.41;;;8.71;52.69
39729;BME280;25402;42.004;23.088;2023-05-10T02:57:57;97582.63;;;9.09;52.74
39729;BME280;25402;42.004;23.088;2023-05-10T03:00:25;97577.06;;;9.02;52.37
39729;BME280;25402;42.004;23.088;2023-05-10T03:02:52;97555.22;;;8.89;52.60
39729;BME280;25402;42.004;23.088;2023-05-10T03:05:19;97576.47;;;8.92;52.48
39729;BME280;25402;42.004;23.088;2023-05-10T03:07:48;97580.84;;;8.85;52.33
39729;BME280;25402;42.004;23.088;2023-05-10T03:10:15;97582.03;;;8.83;52.56
39729;BME280;25402;42.004;23.088;2023-05-10T03:12:55;97572.25;;;8.90;52.39
39729;BME280;25402;42.004;23.088;2023-05-10T03:15:33;97576.13;;;8.87;52.56
39729;BME280;25402;42.004;23.088;2023-05-10T03:18:06;97583.38;;;8.87;52.80
39729;BME280;25402;42.004;23.088;2023-05-10T03:20:36;97584.44;;;8.69;53.23
39729;BME280;25402;42.004;23.088;2023-05-10T03:23:11;97575.97;;;8.89;52.50
39729;BME280;25402;42.004;23.088;2023-05-10T03:25:40;97580.50;;;8.88;52.38
39729;BME280;25402;42.004;23.088;2023-05-10T03:28:09;97573.75;;;8.92;52.36
39729;BME280;25402;42.004;23.088;2023-05-10T03:30:37;97580.56;;;8.80;52.06
39729;BME280;25402;42.004;23.088;2023-05-10T03:33:06;97579.16;;;8.84;52.41
39729;BME280;25402;42.004;23.088;2023-05-10T03:35:33;97578.81;;;8.87;52.75
39729;BME280;25402;42.004;23.088;2023-05-10T03:38:00;97588.38;;;8.98;52.71
39729;BME280;25402;42.004;23.088;2023-05-10T03:40:28;97586.50;;;9.07;52.76
39729;BME280;25402;42.004;23.088;2023-05-10T03:42:57;97587.53;;;9.06;52.82
39729;BME280;25402;42.004;23.088;2023-05-10T03:45:24;97579.78;;;9.02;52.82
39729;BME280;25402;42.004;23.088;2023-05-10T03:47:51;97593.41;;;9.09;52.74
39729;BME280;25402;42.004;23.088;2023-05-10T03:50:17;97594.59;;;9.07;52.99
39729;BME280;25402;42.004;23.088;2023-05-10T03:52:44;97595.63;;;9.06;52.90
39729;BME280;25402;42.004;23.088;2023-05-10T03:55:11;97592.88;;;9.22;55.74
39729;BME280;25402;42.004;23.088;2023-05-10T03:57:40;97591.75;;;9.93;56.67
39729;BME280;25402;42.004;23.088;2023-05-10T04:00:08;97596.88;;;10.48;55.54
39729;BME280;25402;42.004;23.088;2023-05-10T04:02:35;97596.72;;;10.94;54.79
39729;BME280;25402;42.004;23.088;2023-05-10T04:05:02;97605.19;;;11.35;54.28
39729;BME280;25402;42.004;23.088;2023-05-10T04:07:29;97598.28;;;11.68;53.38
39729;BME280;25402;42.004;23.088;2023-05-10T04:09:55;97600.72;;;11.99;52.07
39729;BME280;25402;42.004;23.088;2023-05-10T04:12:22;97612.03;;;12.24;51.22
39729;BME280;25402;42.004;23.088;2023-05-10T04:14:50;97605.53;;;12.46;49.95
39729;BME280;25402;42.004;23.088;2023-05-10T04:17:17;97617.38;;;12.67;49.00
39729;BME280;25402;42.004;23.088;2023-05-10T04:19:44;97612.06;;;12.80;47.72
39729;BME280;25402;42.004;23.088;2023-05-10T04:22:11;97617.56;;;12.87;46.07
39729;BME280;25402;42.004;23.088;2023-05-10T04:24:38;97617.84;;;12.98;45.24
39729;BME280;25402;42.004;23.088;2023-05-10T04:27:05;97614.78;;;13.14;44.81
39729;BME280;25402;42.004;23.088;2023-05-10T04:29:32;97620.81;;;13.10;44.12
39729;BME280;25402;42.004;23.088;2023-05-10T04:32:00;97621.50;;;13.18;43.49
39729;BME280;25402;42.004;23.088;2023-05-10T04:34:29;97596.34;;;13.03;43.10
39729;BME280;25402;42.004;23.088;2023-05-10T04:36:55;97614.00;;;13.20;43.20
39729;BME280;25402;42.004;23.088;2023-05-10T04:39:22;97625.78;;;13.34;42.76
39729;BME280;25402;42.004;23.088;2023-05-10T04:41:49;97579.25;;;13.09;43.19
39729;BME280;25402;42.004;23.088;2023-05-10T04:44:17;97609.78;;;13.52;42.17
39729;BME280;25402;42.004;23.088;2023-05-10T04:46:45;97625.94;;;13.67;42.46
39729;BME280;25402;42.004;23.088;2023-05-10T04:49:13;97573.94;;;13.36;42.38
39729;BME280;25402;42.004;23.088;2023-05-10T04:51:40;97598.94;;;13.59;42.29
39729;BME280;25402;42.004;23.088;2023-05-10T04:54:07;97579.19;;;13.44;42.30
39729;BME280;25402;42.004;23.088;2023-05-10T04:56:34;97597.44;;;13.57;42.05
39729;BME280;25402;42.004;23.088;2023-05-10T04:59:01;97618.63;;;13.74;42.04
39729;BME280;25402;42.004;23.088;2023-05-10T05:01:31;97590.69;;;13.46;41.93
39729;BME280;25402;42.004;23.088;2023-05-10T05:03:59;97611.75;;;13.78;41.39
39729;BME280;25402;42.004;23.088;2023-05-10T05:06:27;97548.84;;;13.34;41.46
39729;BME280;25402;42.004;23.088;2023-05-10T05:08:56;97611.75;;;13.78;41.57
39729;BME280;25402;42.004;23.088;2023-05-10T05:11:24;97622.00;;;13.89;41.49
39729;BME280;25402;42.004;23.088;2023-05-10T05:13:52;97629.16;;;13.97;41.70
39729;BME280;25402;42.004;23.088;2023-05-10T05:16:19;97552.72;;;13.52;41.05
39729;BME280;25402;42.004;23.088;2023-05-10T05:18:53;97616.78;;;13.88;41.09
39729;BME280;25402;42.004;23.088;2023-05-10T05:21:20;97616.78;;;13.88;40.95
39729;BME280;25402;42.004;23.088;2023-05-10T05:23:49;97524.81;;;13.31;40.89
39729;BME280;25402;42.004;23.088;2023-05-10T05:26:16;97570.47;;;13.55;40.85
39729;BME280;25402;42.004;23.088;2023-05-10T05:28:43;97594.78;;;13.76;41.12
39729;BME280;25402;42.004;23.088;2023-05-10T05:31:10;97603.78;;;13.77;41.11
39729;BME280;25402;42.004;23.088;2023-05-10T05:33:37;97601.94;;;13.84;40.59
39729;BME280;25402;42.004;23.088;2023-05-10T05:36:05;97645.28;;;14.05;40.98
39729;BME280;25402;42.004;23.088;2023-05-10T05:38:32;97628.31;;;13.97;40.94
39729;BME280;25402;42.004;23.088;2023-05-10T05:41:02;97648.03;;;14.18;40.90
39729;BME280;25402;42.004;23.088;2023-05-10T05:43:30;97587.50;;;13.83;40.41
39729;BME280;25402;42.004;23.088;2023-05-10T05:45:57;97620.78;;;14.05;40.42
39729;BME280;25402;42.004;23.088;2023-05-10T05:48:24;97588.75;;;13.87;40.24
39729;BME280;25402;42.004;23.088;2023-05-10T05:50:54;97618.91;;;14.06;40.35
39729;BME280;25402;42.004;23.088;2023-05-10T05:53:22;97649.06;;;14.17;40.32
39729;BME280;25402;42.004;23.088;2023-05-10T05:55:52;97629.34;;;14.02;40.22
39729;BME280;25402;42.004;23.088;2023-05-10T05:58:22;97639.84;;;14.05;40.16
39729;BME280;25402;42.004;23.088;2023-05-10T06:00:50;97658.69;;;14.13;39.97
39729;BME280;25402;42.004;23.088;2023-05-10T06:03:19;97630.41;;;13.95;40.12
39729;BME280;25402;42.004;23.088;2023-05-10T06:05:49;97654.91;;;14.08;40.33
39729;BME280;25402;42.004;23.088;2023-05-10T06:08:16;97589.97;;;13.72;40.23
39729;BME280;25402;42.004;23.088;2023-05-10T06:10:48;97650.09;;;14.10;40.09
39729;BME280;25402;42.004;23.088;2023-05-10T06:13:15;97554.00;;;13.63;40.35
39729;BME280;25402;42.004;23.088;2023-05-10T06:15:44;97593.16;;;13.88;39.96
39729;BME280;25402;42.004;23.088;2023-05-10T06:18:11;97668.00;;;14.32;40.13
39729;BME280;25402;42.004;23.088;2023-05-10T06:20:38;97630.47;;;14.14;40.04
39729;BME280;25402;42.004;23.088;2023-05-10T06:23:05;97622.72;;;14.24;39.75
39729;BME280;25402;42.004;23.088;2023-05-10T06:25:32;97663.16;;;14.54;39.76
39729;BME280;25402;42.004;23.088;2023-05-10T06:27:59;97648.50;;;14.48;39.85
39729;BME280;25402;42.004;23.088;2023-05-10T06:30:27;97653.97;;;14.62;39.65
39729;BME280;25402;42.004;23.088;2023-05-10T06:32:56;97626.13;;;14.46;39.45
39729;BME280;25402;42.004;23.088;2023-05-10T06:35:25;97643.72;;;14.64;39.22
39729;BME280;25402;42.004;23.088;2023-05-10T06:37:53;97633.59;;;14.24;38.62
39729;BME280;25402;42.004;23.088;2023-05-10T06:40:21;97667.78;;;14.53;39.00
39729;BME280;25402;42.004;23.088;2023-05-10T06:42:51;97663.59;;;14.51;39.13
39729;BME280;25402;42.004;23.088;2023-05-10T06:45:18;97666.97;;;14.59;39.25
39729;BME280;25402;42.004;23.088;2023-05-10T06:47:46;97618.56;;;14.35;38.94
39729;BME280;25402;42.004;23.088;2023-05-10T06:50:28;97666.94;;;14.53;38.71
39729;BME280;25402;42.004;23.088;2023-05-10T06:52:56;97658.75;;;14.33;38.81
39729;BME280;25402;42.004;23.088;2023-05-10T06:55:23;97680.53;;;14.27;39.08
39729;BME280;25402;42.004;23.088;2023-05-10T06:58:04;97654.50;;;14.17;39.87
39729;BME280;25402;42.004;23.088;2023-05-10T07:00:48;97673.00;;;14.35;39.94
39729;BME280;25402;42.004;23.088;2023-05-10T07:03:16;97634.44;;;14.12;40.27
39729;BME280;25402;42.004;23.088;2023-05-10T07:09:09;97679.06;;;14.50;40.21
39729;BME280;25402;42.004;23.088;2023-05-10T07:11:36;97679.72;;;14.52;39.97
39729;BME280;25402;42.004;23.088;2023-05-10T07:14:17;97684.13;;;14.53;40.00
39729;BME280;25402;42.004;23.088;2023-05-10T07:16:58;97683.09;;;14.61;40.06
39729;BME280;25402;42.004;23.088;2023-05-10T07:19:25;97673.84;;;14.55;39.81
39729;BME280;25402;42.004;23.088;2023-05-10T07:21:54;97668.63;;;14.74;40.04
39729;BME280;25402;42.004;23.088;2023-05-10T07:24:21;97677.84;;;14.79;39.88
39729;BME280;25402;42.004;23.088;2023-05-10T07:27:02;97655.41;;;14.64;39.19
39729;BME280;25402;42.004;23.088;2023-05-10T07:29:46;97666.53;;;14.69;38.99
39729;BME280;25402;42.004;23.088;2023-05-10T07:32:27;97672.63;;;14.78;39.35
39729;BME280;25402;42.004;23.088;2023-05-10T07:34:54;97673.66;;;14.77;38.80
39729;BME280;25402;42.004;23.088;2023-05-10T07:37:36;97613.97;;;14.42;38.96
39729;BME280;25402;42.004;23.088;2023-05-10T07:40:04;97673.00;;;14.81;38.99
39729;BME280;25402;42.004;23.088;2023-05-10T07:42:45;97688.72;;;14.86;39.00
39729;BME280;25402;42.004;23.088;2023-05-10T07:45:12;97654.16;;;14.80;38.60
39729;BME280;25402;42.004;23.088;2023-05-10T07:47:56;97685.63;;;15.02;38.64
39729;BME280;25402;42.004;23.088;2023-05-10T07:50:23;97687.28;;;15.03;38.34
39729;BME280;25402;42.004;23.088;2023-05-10T07:56:21;97683.69;;;15.16;38.13
39729;BME280;25402;42.004;23.088;2023-05-10T07:58:49;97680.56;;;15.12;37.50
39729;BME280;25402;42.004;23.088;2023-05-10T08:01:15;97680.56;;;15.25;37.58
39729;BME280;25402;42.004;23.088;2023-05-10T08:03:42;97669.25;;;15.22;37.60
39729;BME280;25402;42.004;23.088;2023-05-10T08:06:12;97639.91;;;15.17;37.35
39729;BME280;25402;42.004;23.088;2023-05-10T08:08:41;97682.13;;;15.59;37.06
39729;BME280;25402;42.004;23.088;2023-05-10T08:11:08;97624.13;;;15.33;37.01
39729;BME280;25402;42.004;23.088;2023-05-10T08:13:35;97679.84;;;15.50;36.74
39729;BME280;25402;42.004;23.088;2023-05-10T08:16:02;97689.47;;;15.59;36.73
39729;BME280;25402;42.004;23.088;2023-05-10T08:18:29;97698.47;;;15.66;36.69
39729;BME280;25402;42.004;23.088;2023-05-10T08:21:10;97678.53;;;15.66;36.87
39729;BME280;25402;42.004;23.088;2023-05-10T08:23:37;97687.31;;;15.81;37.33
39729;BME280;25402;42.004;23.088;2023-05-10T08:26:05;97682.06;;;15.86;36.98
39729;BME280;25402;42.004;23.088;2023-05-10T08:28:46;97657.53;;;15.79;36.96
39729;BME280;25402;42.004;23.088;2023-05-10T08:31:14;97686.25;;;15.88;37.06
39729;BME280;25402;42.004;23.088;2023-05-10T08:33:55;97671.56;;;15.89;36.58
39729;BME280;25402;42.004;23.088;2023-05-10T08:36:25;97690.00;;;15.94;37.07
39729;BME280;25402;42.004;23.088;2023-05-10T08:38:53;97685.38;;;15.94;36.54
39729;BME280;25402;42.004;23.088;2023-05-10T08:41:23;97692.44;;;16.09;36.40
39729;BME280;25402;42.004;23.088;2023-05-10T08:43:51;97632.56;;;15.82;36.52
39729;BME280;25402;42.004;23.088;2023-05-10T08:46:46;97689.06;;;16.13;36.43
39729;BME280;25402;42.004;23.088;2023-05-10T08:49:17;97584.28;;;15.38;36.39
39729;BME280;25402;42.004;23.088;2023-05-10T08:51:50;97652.28;;;15.84;35.77
39729;BME280;25402;42.004;23.088;2023-05-10T08:57:18;97653.91;;;15.92;36.33
39729;BME280;25402;42.004;23.088;2023-05-10T08:59:46;97644.72;;;15.86;35.65
39729;BME280;25402;42.004;23.088;2023-05-10T09:02:50;97692.00;;;16.12;36.24
39729;BME280;25402;42.004;23.088;2023-05-10T09:05:32;97653.97;;;15.72;37.04
39729;BME280;25402;42.004;23.088;2023-05-10T09:08:08;97693.69;;;16.06;36.86
39729;BME280;25402;42.004;23.088;2023-05-10T09:10:42;97690.94;;;16.13;36.63
39729;BME280;25402;42.004;23.088;2023-05-10T09:13:27;97699.13;;;16.19;37.17
39729;BME280;25402;42.004;23.088;2023-05-10T09:15:55;97669.75;;;16.08;37.16
39729;BME280;25402;42.004;23.088;2023-05-10T09:18:30;97648.41;;;15.98;36.47
39729;BME280;25402;42.004;23.088;2023-05-10T09:20:58;97624.16;;;15.84;36.04
39729;BME280;25402;42.004;23.088;2023-05-10T09:23:25;97650.09;;;16.00;35.39
39729;BME280;25402;42.004;23.088;2023-05-10T09:26:04;97632.78;;;15.74;36.06
39729;BME280;25402;42.004;23.088;2023-05-10T09:31:47;97691.75;;;15.75;36.50
39729;BME280;25402;42.004;23.088;2023-05-10T09:34:19;97684.41;;;15.69;37.33
39729;BME280;25402;42.004;23.088;2023-05-10T09:37:00;97609.88;;;15.31;37.19
39729;BME280;25402;42.004;23.088;2023-05-10T09:39:32;97670.16;;;15.67;37.98
39729;BME280;25402;42.004;23.088;2023-05-10T09:42:01;97694.25;;;15.83;37.71
39729;BME280;25402;42.004;23.088;2023-05-10T09:45:05;97666.56;;;15.80;37.85
39729;BME280;25402;42.004;23.088;2023-05-10T09:47:35;97687.25;;;16.01;38.18
39729;BME280;25402;42.004;23.088;2023-05-10T09:50:16;97619.56;;;15.78;37.66
39729;BME280;25402;42.004;23.088;2023-05-10T09:52:48;97671.41;;;16.16;37.62
39729;BME280;25402;42.004;23.088;2023-05-10T09:55:16;97651.41;;;16.22;37.58
39729;BME280;25402;42.004;23.088;2023-05-10T09:57:45;97635.84;;;16.29;37.57
39729;BME280;25402;42.004;23.088;2023-05-10T10:00:18;97657.72;;;16.54;37.00
39729;BME280;25402;42.004;23.088;2023-05-10T10:03:29;97666.06;;;16.65;36.81
39729;BME280;25402;42.004;23.088;2023-05-10T10:05:56;97645.50;;;16.63;36.17
39729;BME280;25402;42.004;23.088;2023-05-10T10:08:24;97646.22;;;16.77;36.15
39729;BME280;25402;42.004;23.088;2023-05-10T10:10:51;97638.91;;;16.71;34.80
39729;BME280;25402;42.004;23.088;2023-05-10T10:13:34;97573.69;;;16.56;34.87
39729;BME280;25402;42.004;23.088;2023-05-10T10:16:02;97598.81;;;16.89;34.38
39729;BME280;25402;42.004;23.088;2023-05-10T10:18:31;97663.00;;;17.30;34.64
39729;BME280;25402;42.004;23.088;2023-05-10T10:21:01;97644.53;;;17.25;34.58
39729;BME280;25402;42.004;23.088;2023-05-10T10:23:28;97604.75;;;17.05;34.03
39729;BME280;25402;42.004;23.088;2023-05-10T10:25:57;97594.81;;;17.10;33.81
39729;BME280;25402;42.004;23.088;2023-05-10T10:28:35;97661.31;;;17.65;33.84
39729;BME280;25402;42.004;23.088;2023-05-10T10:31:15;97656.59;;;17.73;33.14
39729;BME280;25402;42.004;23.088;2023-05-10T10:33:56;97644.22;;;17.70;33.28
39729;BME280;25402;42.004;23.088;2023-05-10T10:36:29;97660.78;;;17.75;32.80
39729;BME280;25402;42.004;23.088;2023-05-10T10:38:59;97656.22;;;17.69;32.73
39729;BME280;25402;42.004;23.088;2023-05-10T10:41:31;97646.28;;;17.56;32.33
39729;BME280;25402;42.004;23.088;2023-05-10T10:47:23;97601.97;;;17.48;32.59
39729;BME280;25402;42.004;23.088;2023-05-10T10:50:03;97655.53;;;17.55;31.97
39729;BME280;25402;42.004;23.088;2023-05-10T10:52:32;97635.72;;;17.42;32.75
39729;BME280;25402;42.004;23.088;2023-05-10T10:55:14;97637.31;;;17.49;33.22
39729;BME280;25402;42.004;23.088;2023-05-10T10:57:48;97653.31;;;17.64;32.96
39729;BME280;25402;42.004;23.088;2023-05-10T11:00:30;97644.06;;;17.65;32.71
39729;BME280;25402;42.004;23.088;2023-05-10T11:03:03;97651.28;;;17.78;32.45
39729;BME280;25402;42.004;23.088;2023-05-10T11:05:38;97606.69;;;17.59;32.26
39729;BME280;25402;42.004;23.088;2023-05-10T11:08:08;97572.06;;;17.34;32.48
39729;BME280;25402;42.004;23.088;2023-05-10T11:10:51;97654.25;;;17.94;32.98
39729;BME280;25402;42.004;23.088;2023-05-10T11:13:34;97631.16;;;17.90;32.40
39729;BME280;25402;42.004;23.088;2023-05-10T11:16:15;97632.94;;;17.96;32.23
39729;BME280;25402;42.004;23.088;2023-05-10T11:19:17;97611.69;;;17.80;31.85
39729;BME280;25402;42.004;23.088;2023-05-10T11:21:48;97630.91;;;17.92;32.30
39729;BME280;25402;42.004;23.088;2023-05-10T11:24:17;97620.19;;;17.90;31.81
39729;BME280;25402;42.004;23.088;2023-05-10T11:26:49;97627.63;;;18.01;32.34
39729;BME280;25402;42.004;23.088;2023-05-10T11:29:27;97650.78;;;18.17;32.53
39729;BME280;25402;42.004;23.088;2023-05-10T11:31:57;97646.03;;;18.24;32.18
39729;BME280;25402;42.004;23.088;2023-05-10T11:34:27;97606.94;;;18.05;32.29
39729;BME280;25402;42.004;23.088;2023-05-10T11:37:00;97581.66;;;17.92;32.07
39729;BME280;25402;42.004;23.088;2023-05-10T11:39:51;97628.81;;;18.35;32.00
39729;BME280;25402;42.004;23.088;2023-05-10T11:42:21;97620.13;;;18.38;31.76
39729;BME280;25402;42.004;23.088;2023-05-10T11:44:48;97624.59;;;18.51;31.80
39729;BME280;25402;42.004;23.088;2023-05-10T11:47:16;97566.41;;;18.26;31.92
39729;BME280;25402;42.004;23.088;2023-05-10T11:49:57;97624.88;;;18.73;32.13
39729;BME280;25402;42.004;23.088;2023-05-10T11:52:27;97630.81;;;18.82;32.33
39729;BME280;25402;42.004;23.088;2023-05-10T11:54:57;97626.66;;;18.79;32.12
39729;BME280;25402;42.004;23.088;2023-05-10T11:57:26;97594.69;;;18.61;31.53
39729;BME280;25402;42.004;23.088;2023-05-10T11:59:54;97625.44;;;18.75;31.88
39729;BME280;25402;42.004;23.088;2023-05-10T12:02:22;97615.69;;;18.67;31.94
39729;BME280;25402;42.004;23.088;2023-05-10T12:04:58;97617.94;;;18.70;31.58
39729;BME280;25402;42.004;23.088;2023-05-10T12:07:37;97617.22;;;18.63;32.13
39729;BME280;25402;42.004;23.088;2023-05-10T12:10:26;97572.84;;;18.43;31.64
39729;BME280;25402;42.004;23.088;2023-05-10T12:12:53;97601.97;;;18.67;31.83
39729;BME280;25402;42.004;23.088;2023-05-10T12:21:12;97605.91;;;18.83;31.33
39729;BME280;25402;42.004;23.088;2023-05-10T12:24:46;97613.94;;;19.08;31.50
39729;BME280;25402;42.004;23.088;2023-05-10T12:31:02;97588.88;;;18.93;31.62
39729;BME280;25402;42.004;23.088;2023-05-10T12:33:43;97597.56;;;18.90;31.85
39729;BME280;25402;42.004;23.088;2023-05-10T12:36:14;97597.09;;;18.93;31.49
39729;BME280;25402;42.004;23.088;2023-05-10T12:39:20;97593.19;;;18.89;31.78
39729;BME280;25402;42.004;23.088;2023-05-10T12:41:47;97593.97;;;18.89;31.60
39729;BME280;25402;42.004;23.088;2023-05-10T12:44:28;97560.03;;;18.67;31.92
39729;BME280;25402;42.004;23.088;2023-05-10T12:47:09;97592.91;;;18.90;31.97
39729;BME280;25402;42.004;23.088;2023-05-10T12:49:49;97595.31;;;18.87;32.11
39729;BME280;25402;42.004;23.088;2023-05-10T12:52:32;97533.72;;;18.54;31.99
39729;BME280;25402;42.004;23.088;2023-05-10T12:55:39;97591.72;;;18.74;32.17
39729;BME280;25402;42.004;23.088;2023-05-10T12:58:07;97546.09;;;18.45;32.27
39729;BME280;25402;42.004;23.088;2023-05-10T13:00:37;97554.56;;;18.55;31.66
39729;BME280;25402;42.004;23.088;2023-05-10T13:03:05;97537.97;;;18.38;32.37
39729;BME280;25402;42.004;23.088;2023-05-10T13:05:32;97550.59;;;18.39;31.71
39729;BME280;25402;42.004;23.088;2023-05-10T13:08:13;97565.84;;;18.47;31.83
39729;BME280;25402;42.004;23.088;2023-05-10T13:10:45;97550.25;;;17.94;32.66
39729;BME280;25402;42.004;23.088;2023-05-10T13:13:32;97569.56;;;18.11;33.13
39729;BME280;25402;42.004;23.088;2023-05-10T13:16:00;97548.75;;;17.80;33.38
39729;BME280;25402;42.004;23.088;2023-05-10T13:19:09;97536.44;;;17.89;33.28
39729;BME280;25402;42.004;23.088;2023-05-10T13:21:37;97527.63;;;17.87;33.52
39729;BME280;25402;42.004;23.088;2023-05-10T13:24:17;97548.09;;;17.96;33.17
39729;BME280;25402;42.004;23.088;2023-05-10T13:26:59;97511.81;;;17.71;33.44
39729;BME280;25402;42.004;23.088;2023-05-10T13:29:26;97560.63;;;18.04;33.19
39729;BME280;25402;42.004;23.088;2023-05-10T13:32:07;97533.47;;;17.91;32.54
39729;BME280;25402;42.004;23.088;2023-05-10T13:34:48;97523.66;;;17.83;32.71
39729;BME280;25402;42.004;23.088;2023-05-10T13:37:18;97538.09;;;17.90;32.49
39729;BME280;25402;42.004;23.088;2023-05-10T13:39:48;97477.31;;;17.58;32.61
39729;BME280;25402;42.004;23.088;2023-05-10T13:42:32;97559.41;;;18.00;33.41
39729;BME280;25402;42.004;23.088;2023-05-10T13:45:00;97553.44;;;17.91;33.32